Airfield :
LOGIN :

Register | Disclaimer

   EN    FR    IT 

 










Legend :    VFR   Marginal VFR   IFR   Intensive IFR   Very Intensive IFR
Visi :
Ceiling :
>= 8 km
>= 3000ft
5 to 8 km
1000 to 3000 ft
1500m to 5 km
500 to 1000 ft
800 to 1500m
200 to 500 ft
< 800m
< 200 ft
Symbols :   Thunderstorms  Fog  Heavy snow  Heavy precipitations  Wind > 20 kt
SIGMETs :     Misc.  Thunderstorms  Icing  Turbulence  Mountain Waves  Volcanic Ashes






- Airport Elevation : 245 ft
- IATA code : BIQ


LFBZ - Biarritz

CURRENT METAR :
  • 180330Z AUTO VRB02KT 0450 R09/0550N R27/0550N FG VV/// 02/02 Q1032 TEMPO 0200

EXPIRED METARs :
  • 180300Z AUTO 10003KT 0400 R09/0450N R27/0550U FG VV/// 02/02 Q1033 TEMPO 0200
  • 180230Z AUTO 07003KT 040V120 0450 0350 R09/0500N R27/0375N FG VV/// 02/02 Q1033 TEMPO 0200
  • 180200Z AUTO VRB03KT 0350 0300 R09/0400N R27/0375N FG VV/// 02/02 Q1033 NOSIG
  • 180130Z AUTO VRB03KT 0500 0450 R09/0600U R27/0550N FG VV/// 02/02 Q1033 TEMPO 0200
  • 180100Z AUTO 13004KT 090V190 0500 0450 R09/0450D R27/0375D FG VV/// 02/02 Q1033 TEMPO 0200

TAF TAF LFBZ
Valid from the 18 at 00:00 until the 19 at 00:00 UTC


172300Z 1800/1824 07007KT 0300 FG VV///
PROB40 1800/1809 0200
BECMG 1810/1812 9999 NSW BKN004
BECMG 1812/1814 CAVOK
BECMG 1817/1818 BKN005



MET'MAP, your aeronautical weather chart ! - Copyright ORBIFLY December 2007 - Disclaimer

ORBIFLY MET'MAP TEAM :

Programming & Development : Alexandra Zaïnal
Concept & original design : Baudouin d'Aumeries
Assistance for programming : Marc-Olivier Méhu
Technical & hardware support : Manuel Goepfert

Contact : metmap@orbifly.com




SOURCES & CREDITS :

   NOAA